Weather Data

Pearl Creek Farm: 8878 N Farm Road 75, Walnut Grove MO 65770

<== Previous Day (Wednesday 25 Mar 2009) | Next Day (Friday 27 Mar 2009) ==>

Summary Precipitation Data For Thursday 26 March 2009

ElementValueUnits
Precipitation0.36"
Notes(none)
SourceSpringfield-Branson National Airport (SGF)

Summary Temperature Data For Thursday 26 March 2009

ElementValueUnits
High Temperature63 oF
Low Temperature41 oF
Average Temperature51 oF
High Humidity93 %
Low Humidity40 %
Average Humidity69 %
SourceSpringfield-Branson National Airport (SGF)

Detail Temperature Data For Thursday 26 March 2009

Date / TimeTemp (F)RH (%)Dew Pt (F)Report Date / TimeSource
2009-03-26 16:52:00 58 58 43.0 2017-12-29 19:14:24.89625 Springfield-Branson National Airport (SGF)
2009-03-26 17:52:00 55 69 45.0 2017-12-29 19:14:24.89625 Springfield-Branson National Airport (SGF)
2009-03-26 18:52:00 51 89 48.0 2017-12-29 19:14:24.89625 Springfield-Branson National Airport (SGF)
2009-03-26 19:52:00 50 93 48.0 2017-12-29 19:14:24.89625 Springfield-Branson National Airport (SGF)
2009-03-26 21:52:00 49 93 47.0 2017-12-29 19:14:24.89625 Springfield-Branson National Airport (SGF)
2009-03-26 00:52:00 47 69 37.0 2017-12-29 19:14:24.89625 Springfield-Branson National Airport (SGF)
2009-03-26 01:52:00 45 74 37.0 2017-12-29 19:14:24.89625 Springfield-Branson National Airport (SGF)
2009-03-26 04:52:00 43 74 35.0 2017-12-29 19:14:24.89625 Springfield-Branson National Airport (SGF)
2009-03-26 07:52:00 47 63 35.0 2017-12-29 19:14:24.89625 Springfield-Branson National Airport (SGF)
2009-03-26 15:52:00 62 41 38.0 2017-12-29 19:14:24.89625 Springfield-Branson National Airport (SGF)
2009-03-26 20:52:00 50 93 48.0 2017-12-29 19:14:24.89625 Springfield-Branson National Airport (SGF)
2009-03-26 22:52:00 49 90 46.0 2017-12-29 19:14:24.89625 Springfield-Branson National Airport (SGF)
2009-03-26 23:52:00 48 93 46.0 2017-12-29 19:14:24.89625 Springfield-Branson National Airport (SGF)
2009-03-26 02:52:00 44 73 36.0 2017-12-29 19:14:24.89625 Springfield-Branson National Airport (SGF)
2009-03-26 03:52:00 44 73 36.0 2017-12-29 19:14:24.89625 Springfield-Branson National Airport (SGF)
2009-03-26 05:52:00 41 76 34.0 2017-12-29 19:14:24.89625 Springfield-Branson National Airport (SGF)
2009-03-26 06:52:00 43 74 35.0 2017-12-29 19:14:24.89625 Springfield-Branson National Airport (SGF)
2009-03-26 08:52:00 50 57 35.0 2017-12-29 19:14:24.89625 Springfield-Branson National Airport (SGF)
2009-03-26 09:52:00 53 59 39.0 2017-12-29 19:14:24.89625 Springfield-Branson National Airport (SGF)
2009-03-26 10:52:00 57 55 41.0 2017-12-29 19:14:24.89625 Springfield-Branson National Airport (SGF)
2009-03-26 11:52:00 60 52 42.0 2017-12-29 19:14:24.89625 Springfield-Branson National Airport (SGF)
2009-03-26 12:52:00 62 50 43.0 2017-12-29 19:14:24.89625 Springfield-Branson National Airport (SGF)
2009-03-26 13:52:00 63 45 41.0 2017-12-29 19:14:24.89625 Springfield-Branson National Airport (SGF)
2009-03-26 14:52:00 63 40 38.0 2017-12-29 19:14:24.89625 Springfield-Branson National Airport (SGF)

A total of 24 rows are displayed.